sensor_id;sensor_type;location;lat;lon;timestamp;temperature;humidity
37896;DHT22;23733;53.254;10.430;2023-07-02T00:00:05;15.90;99.90
37896;DHT22;23733;53.254;10.430;2023-07-02T00:02:31;15.80;99.90
37896;DHT22;23733;53.254;10.430;2023-07-02T00:04:57;15.80;99.90
37896;DHT22;23733;53.254;10.430;2023-07-02T00:07:23;15.70;99.90
37896;DHT22;23733;53.254;10.430;2023-07-02T00:09:52;15.80;99.90
37896;DHT22;23733;53.254;10.430;2023-07-02T00:12:18;15.70;99.90
37896;DHT22;23733;53.254;10.430;2023-07-02T00:14:43;15.70;99.90
37896;DHT22;23733;53.254;10.430;2023-07-02T00:17:09;15.70;99.90
37896;DHT22;23733;53.254;10.430;2023-07-02T00:19:39;15.70;99.90
37896;DHT22;23733;53.254;10.430;2023-07-02T00:22:08;15.70;99.90
37896;DHT22;23733;53.254;10.430;2023-07-02T00:24:35;15.70;99.90
37896;DHT22;23733;53.254;10.430;2023-07-02T00:27:02;15.70;99.90
37896;DHT22;23733;53.254;10.430;2023-07-02T00:29:28;15.70;99.90
37896;DHT22;23733;53.254;10.430;2023-07-02T00:31:54;15.60;99.90
37896;DHT22;23733;53.254;10.430;2023-07-02T00:34:20;15.60;99.90
37896;DHT22;23733;53.254;10.430;2023-07-02T00:36:46;15.60;99.90
37896;DHT22;23733;53.254;10.430;2023-07-02T00:39:12;15.60;99.90
37896;DHT22;23733;53.254;10.430;2023-07-02T00:41:39;15.60;99.90
37896;DHT22;23733;53.254;10.430;2023-07-02T00:44:05;15.50;99.90
37896;DHT22;23733;53.254;10.430;2023-07-02T00:46:31;15.50;99.90
37896;DHT22;23733;53.254;10.430;2023-07-02T00:48:59;15.50;99.90
37896;DHT22;23733;53.254;10.430;2023-07-02T00:51:26;15.50;99.90
37896;DHT22;23733;53.254;10.430;2023-07-02T00:53:55;15.50;99.90
37896;DHT22;23733;53.254;10.430;2023-07-02T00:56:22;15.40;99.90
37896;DHT22;23733;53.254;10.430;2023-07-02T00:58:50;15.40;99.90
37896;DHT22;23733;53.254;10.430;2023-07-02T01:01:18;15.30;99.90
37896;DHT22;23733;53.254;10.430;2023-07-02T01:13:46;15.40;99.90
37896;DHT22;23733;53.254;10.430;2023-07-02T01:16:12;15.40;99.90
37896;DHT22;23733;53.254;10.430;2023-07-02T01:18:38;15.30;99.90
37896;DHT22;23733;53.254;10.430;2023-07-02T01:21:05;15.40;99.90
37896;DHT22;23733;53.254;10.430;2023-07-02T01:23:32;15.30;99.90
37896;DHT22;23733;53.254;10.430;2023-07-02T01:25:59;15.40;99.90
37896;DHT22;23733;53.254;10.430;2023-07-02T01:45:30;15.40;99.90
37896;DHT22;23733;53.254;10.430;2023-07-02T01:47:56;15.20;99.90
37896;DHT22;23733;53.254;10.430;2023-07-02T01:50:22;15.20;99.90
37896;DHT22;23733;53.254;10.430;2023-07-02T01:52:48;15.20;99.90
37896;DHT22;23733;53.254;10.430;2023-07-02T01:55:14;15.30;99.90
37896;DHT22;23733;53.254;10.430;2023-07-02T01:57:40;15.20;99.90
37896;DHT22;23733;53.254;10.430;2023-07-02T02:00:07;15.20;99.90
37896;DHT22;23733;53.254;10.430;2023-07-02T02:02:34;15.20;99.90
37896;DHT22;23733;53.254;10.430;2023-07-02T02:05:00;15.20;99.90
37896;DHT22;23733;53.254;10.430;2023-07-02T02:07:26;15.20;99.90
37896;DHT22;23733;53.254;10.430;2023-07-02T02:09:53;15.20;99.90
37896;DHT22;23733;53.254;10.430;2023-07-02T02:12:18;15.20;99.90
37896;DHT22;23733;53.254;10.430;2023-07-02T02:14:44;15.20;99.90
37896;DHT22;23733;53.254;10.430;2023-07-02T02:17:10;15.20;99.90
37896;DHT22;23733;53.254;10.430;2023-07-02T02:19:36;15.20;99.90
37896;DHT22;23733;53.254;10.430;2023-07-02T02:22:03;15.20;99.90
37896;DHT22;23733;53.254;10.430;2023-07-02T02:24:29;15.20;99.90
37896;DHT22;23733;53.254;10.430;2023-07-02T02:26:55;15.20;99.90
37896;DHT22;23733;53.254;10.430;2023-07-02T02:29:21;15.20;99.90
37896;DHT22;23733;53.254;10.430;2023-07-02T02:31:47;15.20;99.90
37896;DHT22;23733;53.254;10.430;2023-07-02T02:34:13;15.10;99.90
37896;DHT22;23733;53.254;10.430;2023-07-02T02:36:39;15.20;99.90
37896;DHT22;23733;53.254;10.430;2023-07-02T02:39:05;15.20;99.90
37896;DHT22;23733;53.254;10.430;2023-07-02T02:41:31;15.10;99.90
37896;DHT22;23733;53.254;10.430;2023-07-02T02:43:57;15.10;99.90
37896;DHT22;23733;53.254;10.430;2023-07-02T02:46:23;15.20;99.90
37896;DHT22;23733;53.254;10.430;2023-07-02T02:48:50;15.20;99.90
37896;DHT22;23733;53.254;10.430;2023-07-02T02:51:17;15.20;99.90
37896;DHT22;23733;53.254;10.430;2023-07-02T02:53:43;15.20;99.90
37896;DHT22;23733;53.254;10.430;2023-07-02T02:56:09;15.20;99.90
37896;DHT22;23733;53.254;10.430;2023-07-02T02:58:35;15.20;99.90
37896;DHT22;23733;53.254;10.430;2023-07-02T03:01:01;15.20;99.90
37896;DHT22;23733;53.254;10.430;2023-07-02T03:03:27;15.10;99.90
37896;DHT22;23733;53.254;10.430;2023-07-02T03:05:53;15.10;99.90
37896;DHT22;23733;53.254;10.430;2023-07-02T03:08:19;15.20;99.90
37896;DHT22;23733;53.254;10.430;2023-07-02T03:10:45;15.20;99.90
37896;DHT22;23733;53.254;10.430;2023-07-02T03:13:11;15.20;99.90
37896;DHT22;23733;53.254;10.430;2023-07-02T04:50:51;15.20;99.90
37896;DHT22;23733;53.254;10.430;2023-07-02T04:53:17;15.70;99.90
37896;DHT22;23733;53.254;10.430;2023-07-02T04:55:43;15.70;99.90
37896;DHT22;23733;53.254;10.430;2023-07-02T04:58:09;15.80;99.90
37896;DHT22;23733;53.254;10.430;2023-07-02T05:00:35;15.80;99.90
37896;DHT22;23733;53.254;10.430;2023-07-02T05:03:01;15.80;99.90
37896;DHT22;23733;53.254;10.430;2023-07-02T05:05:27;15.90;99.90
37896;DHT22;23733;53.254;10.430;2023-07-02T05:07:54;16.00;99.90
37896;DHT22;23733;53.254;10.430;2023-07-02T05:10:20;16.00;99.90
37896;DHT22;23733;53.254;10.430;2023-07-02T05:12:46;16.00;99.90
37896;DHT22;23733;53.254;10.430;2023-07-02T05:15:12;16.10;99.90
37896;DHT22;23733;53.254;10.430;2023-07-02T05:17:38;16.10;99.90
37896;DHT22;23733;53.254;10.430;2023-07-02T05:20:05;16.20;99.90
37896;DHT22;23733;53.254;10.430;2023-07-02T05:22:31;16.20;99.90
37896;DHT22;23733;53.254;10.430;2023-07-02T05:24:57;16.20;99.90
37896;DHT22;23733;53.254;10.430;2023-07-02T05:27:23;16.20;99.90
37896;DHT22;23733;53.254;10.430;2023-07-02T05:29:49;16.20;99.90
37896;DHT22;23733;53.254;10.430;2023-07-02T05:32:15;16.20;99.90
37896;DHT22;23733;53.254;10.430;2023-07-02T05:34:41;16.20;99.90
37896;DHT22;23733;53.254;10.430;2023-07-02T05:37:07;16.20;99.90
37896;DHT22;23733;53.254;10.430;2023-07-02T05:39:34;16.30;99.90
37896;DHT22;23733;53.254;10.430;2023-07-02T05:42:00;16.30;99.90
37896;DHT22;23733;53.254;10.430;2023-07-02T05:44:26;16.40;99.90
37896;DHT22;23733;53.254;10.430;2023-07-02T05:46:52;16.40;99.90
37896;DHT22;23733;53.254;10.430;2023-07-02T05:49:18;16.40;99.90
37896;DHT22;23733;53.254;10.430;2023-07-02T05:51:44;16.40;99.90
37896;DHT22;23733;53.254;10.430;2023-07-02T05:54:10;16.40;99.90
37896;DHT22;23733;53.254;10.430;2023-07-02T05:56:36;16.40;99.90
37896;DHT22;23733;53.254;10.430;2023-07-02T05:59:02;16.50;99.90
37896;DHT22;23733;53.254;10.430;2023-07-02T06:01:28;16.50;99.90
37896;DHT22;23733;53.254;10.430;2023-07-02T06:03:54;16.60;99.90
37896;DHT22;23733;53.254;10.430;2023-07-02T06:06:21;16.70;99.90
37896;DHT22;23733;53.254;10.430;2023-07-02T06:08:51;16.70;99.90
37896;DHT22;23733;53.254;10.430;2023-07-02T06:11:17;16.80;99.90
37896;DHT22;23733;53.254;10.430;2023-07-02T06:13:43;16.80;99.90
37896;DHT22;23733;53.254;10.430;2023-07-02T06:16:09;16.80;99.90
37896;DHT22;23733;53.254;10.430;2023-07-02T06:18:35;16.80;99.90
37896;DHT22;23733;53.254;10.430;2023-07-02T06:21:01;16.90;99.90
37896;DHT22;23733;53.254;10.430;2023-07-02T06:23:27;16.90;99.90
37896;DHT22;23733;53.254;10.430;2023-07-02T06:25:53;16.90;99.90
37896;DHT22;23733;53.254;10.430;2023-07-02T06:28:26;17.00;99.90
37896;DHT22;23733;53.254;10.430;2023-07-02T06:30:52;17.10;99.90
37896;DHT22;23733;53.254;10.430;2023-07-02T06:33:18;17.20;99.90
37896;DHT22;23733;53.254;10.430;2023-07-02T11:18:45;17.20;99.90
37896;DHT22;23733;53.254;10.430;2023-07-02T11:21:11;20.60;99.90
37896;DHT22;23733;53.254;10.430;2023-07-02T11:23:37;20.70;99.90
37896;DHT22;23733;53.254;10.430;2023-07-02T11:26:03;20.80;99.90
37896;DHT22;23733;53.254;10.430;2023-07-02T11:28:31;20.90;99.90
37896;DHT22;23733;53.254;10.430;2023-07-02T11:30:58;20.90;99.90
37896;DHT22;23733;53.254;10.430;2023-07-02T11:33:37;21.10;99.90
37896;DHT22;23733;53.254;10.430;2023-07-02T11:36:04;21.20;99.90
37896;DHT22;23733;53.254;10.430;2023-07-02T11:38:30;21.30;99.90
37896;DHT22;23733;53.254;10.430;2023-07-02T11:40:56;21.40;99.90
37896;DHT22;23733;53.254;10.430;2023-07-02T11:43:22;21.40;99.90
37896;DHT22;23733;53.254;10.430;2023-07-02T11:45:48;21.60;99.90
37896;DHT22;23733;53.254;10.430;2023-07-02T11:48:14;21.60;99.90
37896;DHT22;23733;53.254;10.430;2023-07-02T11:50:40;21.70;99.90
37896;DHT22;23733;53.254;10.430;2023-07-02T11:53:06;21.90;99.90
37896;DHT22;23733;53.254;10.430;2023-07-02T11:55:32;21.90;99.90
37896;DHT22;23733;53.254;10.430;2023-07-02T11:57:58;22.00;99.90
37896;DHT22;23733;53.254;10.430;2023-07-02T12:00:24;21.90;99.90
37896;DHT22;23733;53.254;10.430;2023-07-02T12:02:51;21.80;99.90
37896;DHT22;23733;53.254;10.430;2023-07-02T12:05:17;22.00;99.90
37896;DHT22;23733;53.254;10.430;2023-07-02T12:07:43;22.10;99.90
37896;DHT22;23733;53.254;10.430;2023-07-02T12:10:09;22.10;99.90
37896;DHT22;23733;53.254;10.430;2023-07-02T12:12:35;22.10;99.90
37896;DHT22;23733;53.254;10.430;2023-07-02T12:15:02;22.10;99.90
37896;DHT22;23733;53.254;10.430;2023-07-02T12:17:28;21.80;99.90
37896;DHT22;23733;53.254;10.430;2023-07-02T12:20:00;21.80;99.90
37896;DHT22;23733;53.254;10.430;2023-07-02T12:22:26;21.70;99.90
37896;DHT22;23733;53.254;10.430;2023-07-02T12:24:52;21.80;99.90
37896;DHT22;23733;53.254;10.430;2023-07-02T12:27:21;21.70;99.90
37896;DHT22;23733;53.254;10.430;2023-07-02T12:30:06;21.80;99.90
37896;DHT22;23733;53.254;10.430;2023-07-02T12:32:35;21.80;99.90
37896;DHT22;23733;53.254;10.430;2023-07-02T12:35:01;21.80;99.90
37896;DHT22;23733;53.254;10.430;2023-07-02T12:37:27;21.60;99.90
37896;DHT22;23733;53.254;10.430;2023-07-02T12:39:53;21.50;99.90
37896;DHT22;23733;53.254;10.430;2023-07-02T12:42:19;21.50;99.90
37896;DHT22;23733;53.254;10.430;2023-07-02T12:44:45;21.70;99.90
37896;DHT22;23733;53.254;10.430;2023-07-02T12:47:11;21.80;99.90
37896;DHT22;23733;53.254;10.430;2023-07-02T12:49:37;21.90;99.90
37896;DHT22;23733;53.254;10.430;2023-07-02T12:52:04;22.00;99.90
37896;DHT22;23733;53.254;10.430;2023-07-02T12:54:30;22.00;99.90
37896;DHT22;23733;53.254;10.430;2023-07-02T12:56:56;22.00;99.90
37896;DHT22;23733;53.254;10.430;2023-07-02T12:59:22;22.00;99.90
37896;DHT22;23733;53.254;10.430;2023-07-02T13:01:48;21.90;99.90
37896;DHT22;23733;53.254;10.430;2023-07-02T13:04:14;21.80;99.90
37896;DHT22;23733;53.254;10.430;2023-07-02T13:06:41;21.90;99.90
37896;DHT22;23733;53.254;10.430;2023-07-02T13:09:07;21.90;99.90
37896;DHT22;23733;53.254;10.430;2023-07-02T13:11:34;22.00;99.90
37896;DHT22;23733;53.254;10.430;2023-07-02T13:14:00;22.10;99.90
37896;DHT22;23733;53.254;10.430;2023-07-02T13:16:26;22.10;99.90
37896;DHT22;23733;53.254;10.430;2023-07-02T13:18:55;21.90;99.90
37896;DHT22;23733;53.254;10.430;2023-07-02T13:21:25;21.90;99.90
37896;DHT22;23733;53.254;10.430;2023-07-02T13:23:51;21.80;99.90
37896;DHT22;23733;53.254;10.430;2023-07-02T13:26:17;21.80;99.90
37896;DHT22;23733;53.254;10.430;2023-07-02T13:28:43;21.80;99.90
37896;DHT22;23733;53.254;10.430;2023-07-02T13:31:12;21.70;99.90
37896;DHT22;23733;53.254;10.430;2023-07-02T13:33:43;21.60;99.90
37896;DHT22;23733;53.254;10.430;2023-07-02T13:36:10;21.50;99.90
37896;DHT22;23733;53.254;10.430;2023-07-02T13:38:36;21.40;99.90
37896;DHT22;23733;53.254;10.430;2023-07-02T13:41:02;21.50;99.90
37896;DHT22;23733;53.254;10.430;2023-07-02T13:43:28;21.60;99.90
37896;DHT22;23733;53.254;10.430;2023-07-02T13:45:54;21.70;99.90
37896;DHT22;23733;53.254;10.430;2023-07-02T13:48:20;21.70;99.90
37896;DHT22;23733;53.254;10.430;2023-07-02T13:50:46;21.60;99.90
37896;DHT22;23733;53.254;10.430;2023-07-02T13:53:12;21.60;99.90
37896;DHT22;23733;53.254;10.430;2023-07-02T13:55:38;21.60;99.90
37896;DHT22;23733;53.254;10.430;2023-07-02T13:58:04;21.60;99.90
37896;DHT22;23733;53.254;10.430;2023-07-02T14:00:30;21.60;99.90
37896;DHT22;23733;53.254;10.430;2023-07-02T14:02:57;21.60;99.90
37896;DHT22;23733;53.254;10.430;2023-07-02T14:05:26;21.50;99.90
37896;DHT22;23733;53.254;10.430;2023-07-02T14:07:52;21.60;99.90
37896;DHT22;23733;53.254;10.430;2023-07-02T14:10:21;21.70;99.90
37896;DHT22;23733;53.254;10.430;2023-07-02T14:13:32;21.60;99.90
37896;DHT22;23733;53.254;10.430;2023-07-02T14:19:21;21.60;99.90
37896;DHT22;23733;53.254;10.430;2023-07-02T14:21:50;21.50;99.90
37896;DHT22;23733;53.254;10.430;2023-07-02T14:24:16;21.60;99.90
37896;DHT22;23733;53.254;10.430;2023-07-02T14:26:42;21.50;99.90
37896;DHT22;23733;53.254;10.430;2023-07-02T14:29:09;21.40;99.90
37896;DHT22;23733;53.254;10.430;2023-07-02T14:31:43;21.40;99.90
37896;DHT22;23733;53.254;10.430;2023-07-02T14:34:11;21.40;99.90
37896;DHT22;23733;53.254;10.430;2023-07-02T14:36:42;21.40;99.90
37896;DHT22;23733;53.254;10.430;2023-07-02T14:39:08;21.40;99.90
37896;DHT22;23733;53.254;10.430;2023-07-02T15:36:00;21.40;99.90
37896;DHT22;23733;53.254;10.430;2023-07-02T15:38:27;21.10;99.90
37896;DHT22;23733;53.254;10.430;2023-07-02T15:41:34;20.90;99.90
37896;DHT22;23733;53.254;10.430;2023-07-02T15:44:04;21.00;99.90
37896;DHT22;23733;53.254;10.430;2023-07-02T15:46:31;21.00;99.90
37896;DHT22;23733;53.254;10.430;2023-07-02T15:49:00;21.00;99.90
37896;DHT22;23733;53.254;10.430;2023-07-02T15:51:28;21.00;99.90
37896;DHT22;23733;53.254;10.430;2023-07-02T15:53:54;21.00;99.90
37896;DHT22;23733;53.254;10.430;2023-07-02T15:56:21;21.00;99.90
37896;DHT22;23733;53.254;10.430;2023-07-02T15:58:47;21.00;99.90
37896;DHT22;23733;53.254;10.430;2023-07-02T16:01:20;21.20;99.90
37896;DHT22;23733;53.254;10.430;2023-07-02T16:03:46;21.00;99.90
37896;DHT22;23733;53.254;10.430;2023-07-02T16:06:13;20.90;99.90
37896;DHT22;23733;53.254;10.430;2023-07-02T16:11:58;20.80;99.90
37896;DHT22;23733;53.254;10.430;2023-07-02T16:14:24;20.90;99.90
37896;DHT22;23733;53.254;10.430;2023-07-02T16:16:53;20.80;99.90
37896;DHT22;23733;53.254;10.430;2023-07-02T16:19:28;20.90;99.90
37896;DHT22;23733;53.254;10.430;2023-07-02T16:22:03;21.00;99.90
37896;DHT22;23733;53.254;10.430;2023-07-02T16:24:32;20.90;99.90
37896;DHT22;23733;53.254;10.430;2023-07-02T16:27:35;20.90;99.90
37896;DHT22;23733;53.254;10.430;2023-07-02T16:30:11;20.80;99.90
37896;DHT22;23733;53.254;10.430;2023-07-02T16:32:37;20.70;99.90
37896;DHT22;23733;53.254;10.430;2023-07-02T16:35:50;20.70;99.90
37896;DHT22;23733;53.254;10.430;2023-07-02T17:12:24;20.70;99.90
37896;DHT22;23733;53.254;10.430;2023-07-02T17:14:57;20.30;99.90
37896;DHT22;23733;53.254;10.430;2023-07-02T17:17:25;20.30;99.90
37896;DHT22;23733;53.254;10.430;2023-07-02T17:19:58;20.20;99.90
37896;DHT22;23733;53.254;10.430;2023-07-02T17:22:29;20.20;99.90
37896;DHT22;23733;53.254;10.430;2023-07-02T17:28:01;20.20;99.90
37896;DHT22;23733;53.254;10.430;2023-07-02T17:30:27;20.20;99.90
37896;DHT22;23733;53.254;10.430;2023-07-02T17:33:02;20.20;99.90
37896;DHT22;23733;53.254;10.430;2023-07-02T17:35:40;20.20;99.90
37896;DHT22;23733;53.254;10.430;2023-07-02T17:38:10;20.20;99.90
37896;DHT22;23733;53.254;10.430;2023-07-02T17:40:42;20.20;99.90
37896;DHT22;23733;53.254;10.430;2023-07-02T17:43:16;20.20;99.90
37896;DHT22;23733;53.254;10.430;2023-07-02T17:45:57;20.20;99.90
37896;DHT22;23733;53.254;10.430;2023-07-02T17:48:46;20.10;99.90
37896;DHT22;23733;53.254;10.430;2023-07-02T17:51:29;20.20;99.90
37896;DHT22;23733;53.254;10.430;2023-07-02T17:54:16;20.10;99.90
37896;DHT22;23733;53.254;10.430;2023-07-02T17:56:54;20.00;99.90
37896;DHT22;23733;53.254;10.430;2023-07-02T17:59:21;19.90;99.90
37896;DHT22;23733;53.254;10.430;2023-07-02T18:07:35;19.80;99.90
37896;DHT22;23733;53.254;10.430;2023-07-02T18:10:08;19.80;99.90
37896;DHT22;23733;53.254;10.430;2023-07-02T18:12:37;19.80;99.90
37896;DHT22;23733;53.254;10.430;2023-07-02T18:18:14;19.80;99.90
37896;DHT22;23733;53.254;10.430;2023-07-02T18:20:43;19.70;99.90
37896;DHT22;23733;53.254;10.430;2023-07-02T18:23:23;19.70;99.90
37896;DHT22;23733;53.254;10.430;2023-07-02T18:25:53;19.70;99.90
37896;DHT22;23733;53.254;10.430;2023-07-02T18:28:26;19.70;99.90
37896;DHT22;23733;53.254;10.430;2023-07-02T18:30:52;19.70;99.90
37896;DHT22;23733;53.254;10.430;2023-07-02T18:33:29;19.60;99.90
37896;DHT22;23733;53.254;10.430;2023-07-02T18:36:17;19.60;99.90
37896;DHT22;23733;53.254;10.430;2023-07-02T18:42:30;19.50;99.90
37896;DHT22;23733;53.254;10.430;2023-07-02T18:45:06;19.50;99.90
37896;DHT22;23733;53.254;10.430;2023-07-02T18:47:53;19.40;99.90
37896;DHT22;23733;53.254;10.430;2023-07-02T18:50:30;19.40;99.90
37896;DHT22;23733;53.254;10.430;2023-07-02T18:53:05;19.40;99.90
37896;DHT22;23733;53.254;10.430;2023-07-02T21:14:53;19.40;99.90
37896;DHT22;23733;53.254;10.430;2023-07-02T21:17:20;17.80;99.90
37896;DHT22;23733;53.254;10.430;2023-07-02T21:46:36;17.70;99.90
37896;DHT22;23733;53.254;10.430;2023-07-02T21:49:02;17.60;99.90
37896;DHT22;23733;53.254;10.430;2023-07-02T21:51:28;17.60;99.90
37896;DHT22;23733;53.254;10.430;2023-07-02T21:53:55;17.60;99.90
37896;DHT22;23733;53.254;10.430;2023-07-02T21:56:21;17.60;99.90
37896;DHT22;23733;53.254;10.430;2023-07-02T21:58:47;17.60;99.90
37896;DHT22;23733;53.254;10.430;2023-07-02T22:01:14;17.50;99.90
37896;DHT22;23733;53.254;10.430;2023-07-02T22:03:41;17.50;99.90
37896;DHT22;23733;53.254;10.430;2023-07-02T22:06:07;17.50;99.90
37896;DHT22;23733;53.254;10.430;2023-07-02T22:08:33;17.50;99.90
37896;DHT22;23733;53.254;10.430;2023-07-02T22:11:00;17.50;99.90
37896;DHT22;23733;53.254;10.430;2023-07-02T22:13:26;17.50;99.90
37896;DHT22;23733;53.254;10.430;2023-07-02T22:15:52;17.50;99.90
37896;DHT22;23733;53.254;10.430;2023-07-02T22:18:18;17.40;99.90
37896;DHT22;23733;53.254;10.430;2023-07-02T22:20:46;17.40;99.90
37896;DHT22;23733;53.254;10.430;2023-07-02T22:30:34;17.30;99.90
37896;DHT22;23733;53.254;10.430;2023-07-02T22:33:00;17.20;99.90
37896;DHT22;23733;53.254;10.430;2023-07-02T22:47:42;17.20;99.90
37896;DHT22;23733;53.254;10.430;2023-07-02T22:50:10;17.00;99.90
37896;DHT22;23733;53.254;10.430;2023-07-02T22:52:37;17.00;99.90
37896;DHT22;23733;53.254;10.430;2023-07-02T22:55:04;16.90;99.90
37896;DHT22;23733;53.254;10.430;2023-07-02T22:57:33;16.90;99.90
37896;DHT22;23733;53.254;10.430;2023-07-02T23:00:00;16.90;99.90
37896;DHT22;23733;53.254;10.430;2023-07-02T23:02:27;16.90;99.90
37896;DHT22;23733;53.254;10.430;2023-07-02T23:04:53;16.80;99.90
37896;DHT22;23733;53.254;10.430;2023-07-02T23:07:19;16.80;99.90
37896;DHT22;23733;53.254;10.430;2023-07-02T23:09:45;16.80;99.90
37896;DHT22;23733;53.254;10.430;2023-07-02T23:12:11;16.80;99.90
37896;DHT22;23733;53.254;10.430;2023-07-02T23:14:37;16.80;99.90
37896;DHT22;23733;53.254;10.430;2023-07-02T23:17:03;16.70;99.90
37896;DHT22;23733;53.254;10.430;2023-07-02T23:19:30;16.70;99.90
37896;DHT22;23733;53.254;10.430;2023-07-02T23:21:59;16.60;99.90
37896;DHT22;23733;53.254;10.430;2023-07-02T23:24:25;16.60;99.90
37896;DHT22;23733;53.254;10.430;2023-07-02T23:26:54;16.50;99.90
37896;DHT22;23733;53.254;10.430;2023-07-02T23:29:20;16.50;99.90
37896;DHT22;23733;53.254;10.430;2023-07-02T23:31:48;16.50;99.90
37896;DHT22;23733;53.254;10.430;2023-07-02T23:34:15;16.50;99.90
37896;DHT22;23733;53.254;10.430;2023-07-02T23:36:42;16.40;99.90
37896;DHT22;23733;53.254;10.430;2023-07-02T23:39:12;16.40;99.90
37896;DHT22;23733;53.254;10.430;2023-07-02T23:41:38;16.40;99.90
37896;DHT22;23733;53.254;10.430;2023-07-02T23:44:06;16.40;99.90
37896;DHT22;23733;53.254;10.430;2023-07-02T23:46:33;16.40;99.90
37896;DHT22;23733;53.254;10.430;2023-07-02T23:48:59;16.40;99.90
